sensor_id;sensor_type;location;lat;lon;timestamp;temperature;humidity
11399;DHT22;5755;48.116;11.608;2022-09-09T00:02:20;15.30;91.50
11399;DHT22;5755;48.116;11.608;2022-09-09T00:05:09;15.30;91.50
11399;DHT22;5755;48.116;11.608;2022-09-09T00:08:02;15.20;92.30
11399;DHT22;5755;48.116;11.608;2022-09-09T00:10:51;15.20;92.50
11399;DHT22;5755;48.116;11.608;2022-09-09T00:13:34;15.10;92.60
11399;DHT22;5755;48.116;11.608;2022-09-09T00:16:11;15.10;92.90
11399;DHT22;5755;48.116;11.608;2022-09-09T00:18:51;15.10;92.90
11399;DHT22;5755;48.116;11.608;2022-09-09T00:21:21;15.10;93.00
11399;DHT22;5755;48.116;11.608;2022-09-09T00:23:53;15.20;92.90
11399;DHT22;5755;48.116;11.608;2022-09-09T00:26:30;15.20;93.20
11399;DHT22;5755;48.116;11.608;2022-09-09T00:29:04;15.10;92.90
11399;DHT22;5755;48.116;11.608;2022-09-09T00:31:41;15.20;93.00
11399;DHT22;5755;48.116;11.608;2022-09-09T00:34:12;15.20;92.90
11399;DHT22;5755;48.116;11.608;2022-09-09T00:36:49;15.20;92.70
11399;DHT22;5755;48.116;11.608;2022-09-09T00:39:34;15.20;92.60
11399;DHT22;5755;48.116;11.608;2022-09-09T00:42:13;15.30;93.00
11399;DHT22;5755;48.116;11.608;2022-09-09T00:44:53;15.40;92.70
11399;DHT22;5755;48.116;11.608;2022-09-09T00:50:31;15.50;92.70
11399;DHT22;5755;48.116;11.608;2022-09-09T00:53:23;15.50;92.70
11399;DHT22;5755;48.116;11.608;2022-09-09T00:56:12;15.50;92.50
11399;DHT22;5755;48.116;11.608;2022-09-09T00:59:07;15.50;92.40
11399;DHT22;5755;48.116;11.608;2022-09-09T01:01:37;15.40;92.40
11399;DHT22;5755;48.116;11.608;2022-09-09T01:04:07;15.40;92.60
11399;DHT22;5755;48.116;11.608;2022-09-09T01:06:37;15.50;92.40
11399;DHT22;5755;48.116;11.608;2022-09-09T01:09:11;15.60;91.90
11399;DHT22;5755;48.116;11.608;2022-09-09T01:11:51;15.60;91.60
11399;DHT22;5755;48.116;11.608;2022-09-09T01:14:43;15.60;91.60
11399;DHT22;5755;48.116;11.608;2022-09-09T01:17:20;15.50;91.60
11399;DHT22;5755;48.116;11.608;2022-09-09T01:20:10;15.50;91.60
11399;DHT22;5755;48.116;11.608;2022-09-09T01:22:44;15.50;91.90
11399;DHT22;5755;48.116;11.608;2022-09-09T01:25:29;15.50;91.60
11399;DHT22;5755;48.116;11.608;2022-09-09T01:28:00;15.60;91.60
11399;DHT22;5755;48.116;11.608;2022-09-09T01:30:29;15.50;91.60
11399;DHT22;5755;48.116;11.608;2022-09-09T01:32:58;15.50;91.60
11399;DHT22;5755;48.116;11.608;2022-09-09T01:35:35;15.50;91.60
11399;DHT22;5755;48.116;11.608;2022-09-09T01:38:03;15.50;91.70
11399;DHT22;5755;48.116;11.608;2022-09-09T01:40:35;15.40;91.60
11399;DHT22;5755;48.116;11.608;2022-09-09T01:43:07;15.40;91.90
11399;DHT22;5755;48.116;11.608;2022-09-09T01:45:34;15.30;92.30
11399;DHT22;5755;48.116;11.608;2022-09-09T01:48:01;15.30;92.50
11399;DHT22;5755;48.116;11.608;2022-09-09T01:50:29;15.30;92.80
11399;DHT22;5755;48.116;11.608;2022-09-09T01:56:34;15.30;93.00
11399;DHT22;5755;48.116;11.608;2022-09-09T01:59:17;15.30;93.10
11399;DHT22;5755;48.116;11.608;2022-09-09T02:01:56;15.30;93.50
11399;DHT22;5755;48.116;11.608;2022-09-09T02:04:36;15.30;93.60
11399;DHT22;5755;48.116;11.608;2022-09-09T02:07:23;15.30;94.00
11399;DHT22;5755;48.116;11.608;2022-09-09T02:09:58;15.30;93.80
11399;DHT22;5755;48.116;11.608;2022-09-09T02:12:30;15.20;93.90
11399;DHT22;5755;48.116;11.608;2022-09-09T02:15:07;15.20;93.90
11399;DHT22;5755;48.116;11.608;2022-09-09T02:17:49;15.10;94.20
11399;DHT22;5755;48.116;11.608;2022-09-09T02:20:37;15.10;94.50
11399;DHT22;5755;48.116;11.608;2022-09-09T02:23:05;15.00;94.30
11399;DHT22;5755;48.116;11.608;2022-09-09T02:25:35;15.00;94.50
11399;DHT22;5755;48.116;11.608;2022-09-09T02:28:04;15.10;94.70
11399;DHT22;5755;48.116;11.608;2022-09-09T02:30:37;15.00;94.80
11399;DHT22;5755;48.116;11.608;2022-09-09T02:33:23;15.10;95.00
11399;DHT22;5755;48.116;11.608;2022-09-09T02:36:08;15.10;94.70
11399;DHT22;5755;48.116;11.608;2022-09-09T02:38:38;15.00;94.80
11399;DHT22;5755;48.116;11.608;2022-09-09T02:41:07;15.00;94.80
11399;DHT22;5755;48.116;11.608;2022-09-09T02:43:34;15.00;95.00
11399;DHT22;5755;48.116;11.608;2022-09-09T02:46:11;14.90;95.40
11399;DHT22;5755;48.116;11.608;2022-09-09T02:48:51;14.90;95.90
11399;DHT22;5755;48.116;11.608;2022-09-09T02:51:27;14.80;95.90
11399;DHT22;5755;48.116;11.608;2022-09-09T02:54:02;14.80;95.60
11399;DHT22;5755;48.116;11.608;2022-09-09T02:56:33;14.90;95.40
11399;DHT22;5755;48.116;11.608;2022-09-09T02:59:05;14.90;95.30
11399;DHT22;5755;48.116;11.608;2022-09-09T03:01:43;15.00;95.70
11399;DHT22;5755;48.116;11.608;2022-09-09T03:04:10;15.00;95.40
11399;DHT22;5755;48.116;11.608;2022-09-09T03:06:37;15.00;95.40
11399;DHT22;5755;48.116;11.608;2022-09-09T03:09:04;15.00;95.20
11399;DHT22;5755;48.116;11.608;2022-09-09T03:11:31;14.90;95.30
11399;DHT22;5755;48.116;11.608;2022-09-09T03:13:58;14.90;95.60
11399;DHT22;5755;48.116;11.608;2022-09-09T03:16:29;14.90;95.40
11399;DHT22;5755;48.116;11.608;2022-09-09T03:19:01;15.00;95.60
11399;DHT22;5755;48.116;11.608;2022-09-09T03:21:53;14.90;95.40
11399;DHT22;5755;48.116;11.608;2022-09-09T03:24:20;14.90;95.40
11399;DHT22;5755;48.116;11.608;2022-09-09T03:26:48;14.90;95.30
11399;DHT22;5755;48.116;11.608;2022-09-09T03:29:23;15.00;95.20
11399;DHT22;5755;48.116;11.608;2022-09-09T03:31:50;14.90;95.20
11399;DHT22;5755;48.116;11.608;2022-09-09T03:34:19;14.80;95.30
11399;DHT22;5755;48.116;11.608;2022-09-09T03:36:47;14.80;95.60
11399;DHT22;5755;48.116;11.608;2022-09-09T03:39:15;14.70;95.80
11399;DHT22;5755;48.116;11.608;2022-09-09T03:41:47;14.70;96.00
11399;DHT22;5755;48.116;11.608;2022-09-09T03:44:17;14.60;96.40
11399;DHT22;5755;48.116;11.608;2022-09-09T03:46:44;14.60;96.80
11399;DHT22;5755;48.116;11.608;2022-09-09T03:49:11;14.60;96.80
11399;DHT22;5755;48.116;11.608;2022-09-09T03:51:39;14.60;96.80
11399;DHT22;5755;48.116;11.608;2022-09-09T03:54:06;14.60;96.80
11399;DHT22;5755;48.116;11.608;2022-09-09T03:56:36;14.60;97.00
11399;DHT22;5755;48.116;11.608;2022-09-09T03:59:05;14.60;97.10
11399;DHT22;5755;48.116;11.608;2022-09-09T04:01:41;14.70;97.30
11399;DHT22;5755;48.116;11.608;2022-09-09T04:04:08;14.70;97.30
11399;DHT22;5755;48.116;11.608;2022-09-09T04:09:45;14.70;96.80
11399;DHT22;5755;48.116;11.608;2022-09-09T04:12:29;14.80;96.90
11399;DHT22;5755;48.116;11.608;2022-09-09T04:14:58;14.80;96.90
11399;DHT22;5755;48.116;11.608;2022-09-09T04:17:26;14.80;96.80
11399;DHT22;5755;48.116;11.608;2022-09-09T04:19:53;14.80;96.90
11399;DHT22;5755;48.116;11.608;2022-09-09T04:22:29;14.80;96.80
11399;DHT22;5755;48.116;11.608;2022-09-09T04:25:25;14.80;96.90
11399;DHT22;5755;48.116;11.608;2022-09-09T04:27:54;14.80;96.80
11399;DHT22;5755;48.116;11.608;2022-09-09T04:30:41;14.80;96.80
11399;DHT22;5755;48.116;11.608;2022-09-09T04:39:49;14.60;96.80
11399;DHT22;5755;48.116;11.608;2022-09-09T04:42:19;14.70;96.80
11399;DHT22;5755;48.116;11.608;2022-09-09T04:45:11;14.70;96.80
11399;DHT22;5755;48.116;11.608;2022-09-09T04:48:11;14.60;96.80
11399;DHT22;5755;48.116;11.608;2022-09-09T04:51:03;14.50;97.00
11399;DHT22;5755;48.116;11.608;2022-09-09T04:53:35;14.50;97.30
11399;DHT22;5755;48.116;11.608;2022-09-09T04:56:05;14.60;97.40
11399;DHT22;5755;48.116;11.608;2022-09-09T04:58:34;14.50;97.50
11399;DHT22;5755;48.116;11.608;2022-09-09T05:01:06;14.50;97.80
11399;DHT22;5755;48.116;11.608;2022-09-09T05:03:33;14.50;98.20
11399;DHT22;5755;48.116;11.608;2022-09-09T05:06:13;14.50;98.20
11399;DHT22;5755;48.116;11.608;2022-09-09T05:12:17;14.60;98.00
11399;DHT22;5755;48.116;11.608;2022-09-09T05:14:55;14.70;97.30
11399;DHT22;5755;48.116;11.608;2022-09-09T05:17:41;14.70;97.00
11399;DHT22;5755;48.116;11.608;2022-09-09T05:20:08;15.20;97.00
11399;DHT22;5755;48.116;11.608;2022-09-09T05:22:35;15.50;96.10
11399;DHT22;5755;48.116;11.608;2022-09-09T05:25:06;15.70;95.10
11399;DHT22;5755;48.116;11.608;2022-09-09T05:27:37;15.70;94.90
11399;DHT22;5755;48.116;11.608;2022-09-09T05:30:12;15.80;94.90
11399;DHT22;5755;48.116;11.608;2022-09-09T05:33:05;16.00;93.30
11399;DHT22;5755;48.116;11.608;2022-09-09T05:35:35;15.80;93.40
11399;DHT22;5755;48.116;11.608;2022-09-09T05:38:05;15.60;93.90
11399;DHT22;5755;48.116;11.608;2022-09-09T05:40:47;15.70;94.70
11399;DHT22;5755;48.116;11.608;2022-09-09T05:43:41;15.60;94.60
11399;DHT22;5755;48.116;11.608;2022-09-09T05:50:00;15.50;94.90
11399;DHT22;5755;48.116;11.608;2022-09-09T05:52:27;15.40;94.90
11399;DHT22;5755;48.116;11.608;2022-09-09T05:58:53;15.30;95.70
11399;DHT22;5755;48.116;11.608;2022-09-09T06:01:25;15.40;95.30
11399;DHT22;5755;48.116;11.608;2022-09-09T06:04:06;15.80;95.00
11399;DHT22;5755;48.116;11.608;2022-09-09T06:06:37;16.10;93.60
11399;DHT22;5755;48.116;11.608;2022-09-09T06:09:06;16.10;92.90
11399;DHT22;5755;48.116;11.608;2022-09-09T06:12:11;16.10;93.50
11399;DHT22;5755;48.116;11.608;2022-09-09T06:14:53;15.90;94.20
11399;DHT22;5755;48.116;11.608;2022-09-09T06:17:20;15.90;94.00
11399;DHT22;5755;48.116;11.608;2022-09-09T06:19:47;16.00;94.10
11399;DHT22;5755;48.116;11.608;2022-09-09T06:22:25;16.10;93.50
11399;DHT22;5755;48.116;11.608;2022-09-09T06:24:53;16.20;92.70
11399;DHT22;5755;48.116;11.608;2022-09-09T06:30:47;16.00;92.90
11399;DHT22;5755;48.116;11.608;2022-09-09T06:33:41;15.90;93.30
11399;DHT22;5755;48.116;11.608;2022-09-09T06:36:13;16.00;93.60
11399;DHT22;5755;48.116;11.608;2022-09-09T06:38:43;16.00;93.00
11399;DHT22;5755;48.116;11.608;2022-09-09T06:41:13;16.00;93.00
11399;DHT22;5755;48.116;11.608;2022-09-09T06:43:42;16.10;93.00
11399;DHT22;5755;48.116;11.608;2022-09-09T06:46:19;16.10;93.10
11399;DHT22;5755;48.116;11.608;2022-09-09T06:48:48;16.20;92.20
11399;DHT22;5755;48.116;11.608;2022-09-09T06:51:31;16.30;91.80
11399;DHT22;5755;48.116;11.608;2022-09-09T06:54:22;16.40;91.80
11399;DHT22;5755;48.116;11.608;2022-09-09T06:56:49;16.50;91.80
11399;DHT22;5755;48.116;11.608;2022-09-09T06:59:17;16.60;91.50
11399;DHT22;5755;48.116;11.608;2022-09-09T07:01:48;16.60;90.70
11399;DHT22;5755;48.116;11.608;2022-09-09T07:04:17;16.60;91.00
11399;DHT22;5755;48.116;11.608;2022-09-09T07:06:45;16.60;91.30
11399;DHT22;5755;48.116;11.608;2022-09-09T07:09:14;16.60;91.00
11399;DHT22;5755;48.116;11.608;2022-09-09T07:11:44;16.60;90.80
11399;DHT22;5755;48.116;11.608;2022-09-09T07:14:12;16.60;90.50
11399;DHT22;5755;48.116;11.608;2022-09-09T07:20:11;17.00;90.70
11399;DHT22;5755;48.116;11.608;2022-09-09T07:22:41;16.90;90.00
11399;DHT22;5755;48.116;11.608;2022-09-09T07:25:29;16.90;90.20
11399;DHT22;5755;48.116;11.608;2022-09-09T07:28:25;16.90;90.20
11399;DHT22;5755;48.116;11.608;2022-09-09T07:30:55;16.80;91.70
11399;DHT22;5755;48.116;11.608;2022-09-09T07:33:35;16.60;91.80
11399;DHT22;5755;48.116;11.608;2022-09-09T07:36:05;16.60;91.50
11399;DHT22;5755;48.116;11.608;2022-09-09T07:39:00;16.60;91.80
11399;DHT22;5755;48.116;11.608;2022-09-09T07:41:29;16.70;91.10
11399;DHT22;5755;48.116;11.608;2022-09-09T07:44:09;16.90;91.10
11399;DHT22;5755;48.116;11.608;2022-09-09T07:46:37;16.90;90.60
11399;DHT22;5755;48.116;11.608;2022-09-09T07:49:06;16.90;90.50
11399;DHT22;5755;48.116;11.608;2022-09-09T07:51:35;17.00;90.80
11399;DHT22;5755;48.116;11.608;2022-09-09T07:54:04;17.30;90.00
11399;DHT22;5755;48.116;11.608;2022-09-09T07:56:36;17.40;89.40
11399;DHT22;5755;48.116;11.608;2022-09-09T07:59:13;17.60;85.10
11399;DHT22;5755;48.116;11.608;2022-09-09T08:02:05;17.80;83.90
11399;DHT22;5755;48.116;11.608;2022-09-09T08:04:36;17.80;84.90
11399;DHT22;5755;48.116;11.608;2022-09-09T08:07:12;17.70;86.30
11399;DHT22;5755;48.116;11.608;2022-09-09T08:09:42;17.70;86.70
11399;DHT22;5755;48.116;11.608;2022-09-09T08:12:09;17.90;85.10
11399;DHT22;5755;48.116;11.608;2022-09-09T08:14:43;17.80;83.90
11399;DHT22;5755;48.116;11.608;2022-09-09T08:17:15;17.90;83.20
11399;DHT22;5755;48.116;11.608;2022-09-09T08:20:08;18.00;84.10
11399;DHT22;5755;48.116;11.608;2022-09-09T08:22:55;18.10;83.30
11399;DHT22;5755;48.116;11.608;2022-09-09T08:25:53;18.20;84.00
11399;DHT22;5755;48.116;11.608;2022-09-09T08:28:30;18.20;83.40
11399;DHT22;5755;48.116;11.608;2022-09-09T08:31:12;18.10;83.90
11399;DHT22;5755;48.116;11.608;2022-09-09T08:33:48;18.10;86.00
11399;DHT22;5755;48.116;11.608;2022-09-09T08:36:25;18.20;85.00
11399;DHT22;5755;48.116;11.608;2022-09-09T08:39:00;18.40;84.60
11399;DHT22;5755;48.116;11.608;2022-09-09T08:41:57;18.50;83.20
11399;DHT22;5755;48.116;11.608;2022-09-09T08:44:48;18.60;80.90
11399;DHT22;5755;48.116;11.608;2022-09-09T08:47:24;18.50;80.90
11399;DHT22;5755;48.116;11.608;2022-09-09T08:50:16;18.40;80.10
11399;DHT22;5755;48.116;11.608;2022-09-09T08:53:02;18.10;83.60
11399;DHT22;5755;48.116;11.608;2022-09-09T08:55:49;18.00;83.70
11399;DHT22;5755;48.116;11.608;2022-09-09T08:58:19;18.00;83.20
11399;DHT22;5755;48.116;11.608;2022-09-09T09:01:01;17.90;85.50
11399;DHT22;5755;48.116;11.608;2022-09-09T09:03:37;18.00;83.90
11399;DHT22;5755;48.116;11.608;2022-09-09T09:06:42;18.30;82.50
11399;DHT22;5755;48.116;11.608;2022-09-09T09:09:15;18.50;80.00
11399;DHT22;5755;48.116;11.608;2022-09-09T09:12:10;18.60;80.80
11399;DHT22;5755;48.116;11.608;2022-09-09T09:15:14;18.60;79.80
11399;DHT22;5755;48.116;11.608;2022-09-09T09:21:16;18.80;80.00
11399;DHT22;5755;48.116;11.608;2022-09-09T09:23:56;19.10;77.40
11399;DHT22;5755;48.116;11.608;2022-09-09T09:26:47;19.30;77.90
11399;DHT22;5755;48.116;11.608;2022-09-09T09:29:30;19.40;76.60
11399;DHT22;5755;48.116;11.608;2022-09-09T09:32:02;19.50;76.90
11399;DHT22;5755;48.116;11.608;2022-09-09T09:34:30;19.60;78.10
11399;DHT22;5755;48.116;11.608;2022-09-09T09:37:01;19.70;75.50
11399;DHT22;5755;48.116;11.608;2022-09-09T09:39:30;19.50;75.50
11399;DHT22;5755;48.116;11.608;2022-09-09T09:42:09;19.50;75.80
11399;DHT22;5755;48.116;11.608;2022-09-09T09:44:40;19.30;76.70
11399;DHT22;5755;48.116;11.608;2022-09-09T09:47:29;19.10;78.50
11399;DHT22;5755;48.116;11.608;2022-09-09T09:50:17;19.00;80.10
11399;DHT22;5755;48.116;11.608;2022-09-09T09:52:55;18.80;80.80
11399;DHT22;5755;48.116;11.608;2022-09-09T09:55:25;18.70;81.30
11399;DHT22;5755;48.116;11.608;2022-09-09T09:58:04;18.40;81.40
11399;DHT22;5755;48.116;11.608;2022-09-09T10:00:33;18.40;83.60
11399;DHT22;5755;48.116;11.608;2022-09-09T10:03:35;18.50;82.90
11399;DHT22;5755;48.116;11.608;2022-09-09T10:06:06;18.60;82.30
11399;DHT22;5755;48.116;11.608;2022-09-09T10:08:46;18.50;79.80
11399;DHT22;5755;48.116;11.608;2022-09-09T10:14:18;18.50;79.80
11399;DHT22;5755;48.116;11.608;2022-09-09T10:16:56;18.70;79.90
11399;DHT22;5755;48.116;11.608;2022-09-09T10:26:24;18.30;77.50
11399;DHT22;5755;48.116;11.608;2022-09-09T10:32:17;17.70;82.00
11399;DHT22;5755;48.116;11.608;2022-09-09T10:38:27;17.70;83.50
11399;DHT22;5755;48.116;11.608;2022-09-09T10:44:20;18.20;81.30
11399;DHT22;5755;48.116;11.608;2022-09-09T10:47:15;18.30;79.60
11399;DHT22;5755;48.116;11.608;2022-09-09T10:50:02;18.50;78.50
11399;DHT22;5755;48.116;11.608;2022-09-09T10:52:41;18.50;79.50
11399;DHT22;5755;48.116;11.608;2022-09-09T10:55:20;18.50;79.80
11399;DHT22;5755;48.116;11.608;2022-09-09T10:57:48;18.70;76.20
11399;DHT22;5755;48.116;11.608;2022-09-09T11:00:22;18.60;77.00
11399;DHT22;5755;48.116;11.608;2022-09-09T11:02:52;18.60;77.40
11399;DHT22;5755;48.116;11.608;2022-09-09T11:05:41;18.60;78.10
11399;DHT22;5755;48.116;11.608;2022-09-09T11:08:26;18.70;77.40
11399;DHT22;5755;48.116;11.608;2022-09-09T11:10:58;18.90;75.90
11399;DHT22;5755;48.116;11.608;2022-09-09T11:16:53;19.50;72.40
11399;DHT22;5755;48.116;11.608;2022-09-09T11:22:47;19.70;67.50
11399;DHT22;5755;48.116;11.608;2022-09-09T11:25:32;19.70;67.20
11399;DHT22;5755;48.116;11.608;2022-09-09T11:28:27;19.90;67.40
11399;DHT22;5755;48.116;11.608;2022-09-09T11:31:11;20.10;64.50
11399;DHT22;5755;48.116;11.608;2022-09-09T11:34:13;19.90;63.40
11399;DHT22;5755;48.116;11.608;2022-09-09T11:40:14;19.70;65.90
11399;DHT22;5755;48.116;11.608;2022-09-09T11:46:21;19.60;66.70
11399;DHT22;5755;48.116;11.608;2022-09-09T11:48:58;19.80;59.10
11399;DHT22;5755;48.116;11.608;2022-09-09T11:51:38;19.80;59.10
11399;DHT22;5755;48.116;11.608;2022-09-09T11:54:44;20.00;58.50
11399;DHT22;5755;48.116;11.608;2022-09-09T12:00:49;20.10;56.00
11399;DHT22;5755;48.116;11.608;2022-09-09T12:06:53;20.00;54.00
11399;DHT22;5755;48.116;11.608;2022-09-09T12:09:37;19.80;54.20
11399;DHT22;5755;48.116;11.608;2022-09-09T12:12:28;19.70;54.70
11399;DHT22;5755;48.116;11.608;2022-09-09T12:15:21;19.80;55.70
11399;DHT22;5755;48.116;11.608;2022-09-09T12:17:55;20.00;55.90
11399;DHT22;5755;48.116;11.608;2022-09-09T12:20:33;20.10;55.70
11399;DHT22;5755;48.116;11.608;2022-09-09T12:26:43;20.50;51.30
11399;DHT22;5755;48.116;11.608;2022-09-09T12:29:38;20.60;50.50
11399;DHT22;5755;48.116;11.608;2022-09-09T12:32:15;20.80;53.80
11399;DHT22;5755;48.116;11.608;2022-09-09T12:34:52;20.70;49.00
11399;DHT22;5755;48.116;11.608;2022-09-09T12:37:38;20.60;48.60
11399;DHT22;5755;48.116;11.608;2022-09-09T12:40:19;20.50;50.00
11399;DHT22;5755;48.116;11.608;2022-09-09T12:43:18;20.60;53.30
11399;DHT22;5755;48.116;11.608;2022-09-09T12:45:47;20.80;52.30
11399;DHT22;5755;48.116;11.608;2022-09-09T12:48:16;20.80;48.70
11399;DHT22;5755;48.116;11.608;2022-09-09T12:50:46;20.80;49.60
11399;DHT22;5755;48.116;11.608;2022-09-09T12:53:32;20.70;48.90
11399;DHT22;5755;48.116;11.608;2022-09-09T12:56:02;20.70;48.30
11399;DHT22;5755;48.116;11.608;2022-09-09T12:58:31;20.70;52.00
11399;DHT22;5755;48.116;11.608;2022-09-09T13:01:35;20.70;52.10
11399;DHT22;5755;48.116;11.608;2022-09-09T13:04:20;20.40;51.10
11399;DHT22;5755;48.116;11.608;2022-09-09T13:06:54;20.20;51.10
11399;DHT22;5755;48.116;11.608;2022-09-09T13:09:59;20.10;52.30
11399;DHT22;5755;48.116;11.608;2022-09-09T13:12:27;20.20;53.80
11399;DHT22;5755;48.116;11.608;2022-09-09T13:18:22;20.30;53.60
11399;DHT22;5755;48.116;11.608;2022-09-09T13:20:54;20.30;51.00
11399;DHT22;5755;48.116;11.608;2022-09-09T13:23:41;20.10;51.60
11399;DHT22;5755;48.116;11.608;2022-09-09T13:26:21;20.20;52.70
11399;DHT22;5755;48.116;11.608;2022-09-09T13:28:55;20.40;51.50
11399;DHT22;5755;48.116;11.608;2022-09-09T13:31:24;20.30;48.40
11399;DHT22;5755;48.116;11.608;2022-09-09T13:33:54;20.20;48.30
11399;DHT22;5755;48.116;11.608;2022-09-09T13:36:59;20.00;49.60
11399;DHT22;5755;48.116;11.608;2022-09-09T13:39:51;19.90;50.20
11399;DHT22;5755;48.116;11.608;2022-09-09T13:42:31;19.80;51.80
11399;DHT22;5755;48.116;11.608;2022-09-09T13:45:19;19.60;53.40
11399;DHT22;5755;48.116;11.608;2022-09-09T13:47:48;19.40;55.30
11399;DHT22;5755;48.116;11.608;2022-09-09T13:50:27;19.30;55.30
11399;DHT22;5755;48.116;11.608;2022-09-09T13:53:07;19.10;56.80
11399;DHT22;5755;48.116;11.608;2022-09-09T13:55:36;19.30;58.10
11399;DHT22;5755;48.116;11.608;2022-09-09T13:58:14;19.30;58.20
11399;DHT22;5755;48.116;11.608;2022-09-09T14:00:43;19.00;59.70
11399;DHT22;5755;48.116;11.608;2022-09-09T14:03:29;19.10;60.30
11399;DHT22;5755;48.116;11.608;2022-09-09T14:06:14;19.10;63.40
11399;DHT22;5755;48.116;11.608;2022-09-09T14:08:49;19.30;62.10
11399;DHT22;5755;48.116;11.608;2022-09-09T14:11:17;19.10;61.20
11399;DHT22;5755;48.116;11.608;2022-09-09T14:13:48;18.90;62.20
11399;DHT22;5755;48.116;11.608;2022-09-09T14:16:18;19.10;60.40
11399;DHT22;5755;48.116;11.608;2022-09-09T14:18:54;19.20;59.90
11399;DHT22;5755;48.116;11.608;2022-09-09T14:21:26;18.90;59.80
11399;DHT22;5755;48.116;11.608;2022-09-09T14:24:06;18.80;64.20
11399;DHT22;5755;48.116;11.608;2022-09-09T14:26:33;18.80;63.50
11399;DHT22;5755;48.116;11.608;2022-09-09T14:29:00;18.90;63.30
11399;DHT22;5755;48.116;11.608;2022-09-09T14:31:59;19.10;64.00
11399;DHT22;5755;48.116;11.608;2022-09-09T14:34:27;19.10;60.10
11399;DHT22;5755;48.116;11.608;2022-09-09T14:37:01;18.90;59.40
11399;DHT22;5755;48.116;11.608;2022-09-09T14:39:30;18.80;61.00
11399;DHT22;5755;48.116;11.608;2022-09-09T14:42:06;18.80;65.50
11399;DHT22;5755;48.116;11.608;2022-09-09T14:44:44;18.80;62.30
11399;DHT22;5755;48.116;11.608;2022-09-09T14:47:35;18.70;62.20
11399;DHT22;5755;48.116;11.608;2022-09-09T14:50:53;18.70;61.20
11399;DHT22;5755;48.116;11.608;2022-09-09T14:53:59;18.70;61.40
11399;DHT22;5755;48.116;11.608;2022-09-09T14:56:52;18.70;62.00
11399;DHT22;5755;48.116;11.608;2022-09-09T14:59:57;18.70;62.50
11399;DHT22;5755;48.116;11.608;2022-09-09T15:02:43;18.70;67.80
11399;DHT22;5755;48.116;11.608;2022-09-09T15:05:52;18.70;62.40
11399;DHT22;5755;48.116;11.608;2022-09-09T15:11:34;18.70;65.30
11399;DHT22;5755;48.116;11.608;2022-09-09T15:14:57;18.80;62.70
11399;DHT22;5755;48.116;11.608;2022-09-09T15:21:27;18.80;63.30
11399;DHT22;5755;48.116;11.608;2022-09-09T15:24:09;18.80;58.40
11399;DHT22;5755;48.116;11.608;2022-09-09T15:26:40;18.70;60.90
11399;DHT22;5755;48.116;11.608;2022-09-09T15:29:30;18.60;63.60
11399;DHT22;5755;48.116;11.608;2022-09-09T15:32:24;18.50;60.90
11399;DHT22;5755;48.116;11.608;2022-09-09T15:35:14;18.40;64.60
11399;DHT22;5755;48.116;11.608;2022-09-09T15:38:00;18.30;60.30
11399;DHT22;5755;48.116;11.608;2022-09-09T15:41:05;18.20;63.50
11399;DHT22;5755;48.116;11.608;2022-09-09T15:44:06;18.30;61.90
11399;DHT22;5755;48.116;11.608;2022-09-09T15:47:15;18.20;64.10
11399;DHT22;5755;48.116;11.608;2022-09-09T15:49:55;18.20;62.20
11399;DHT22;5755;48.116;11.608;2022-09-09T15:59:23;18.40;62.10
11399;DHT22;5755;48.116;11.608;2022-09-09T16:02:01;18.70;60.30
11399;DHT22;5755;48.116;11.608;2022-09-09T16:04:48;18.90;59.40
11399;DHT22;5755;48.116;11.608;2022-09-09T16:07:57;18.80;58.60
11399;DHT22;5755;48.116;11.608;2022-09-09T16:10:49;18.80;59.70
11399;DHT22;5755;48.116;11.608;2022-09-09T16:13:18;18.70;59.70
11399;DHT22;5755;48.116;11.608;2022-09-09T16:16:07;18.50;61.20
11399;DHT22;5755;48.116;11.608;2022-09-09T16:18:50;18.30;63.80
11399;DHT22;5755;48.116;11.608;2022-09-09T16:21:19;18.20;68.00
11399;DHT22;5755;48.116;11.608;2022-09-09T16:23:49;18.10;66.10
11399;DHT22;5755;48.116;11.608;2022-09-09T16:26:18;18.10;64.70
11399;DHT22;5755;48.116;11.608;2022-09-09T16:28:46;18.20;61.00
11399;DHT22;5755;48.116;11.608;2022-09-09T16:31:18;18.20;60.60
11399;DHT22;5755;48.116;11.608;2022-09-09T16:37:06;18.40;59.70
11399;DHT22;5755;48.116;11.608;2022-09-09T16:39:42;18.50;54.60
11399;DHT22;5755;48.116;11.608;2022-09-09T16:42:09;18.50;54.60
11399;DHT22;5755;48.116;11.608;2022-09-09T16:48:03;18.50;54.60
11399;DHT22;5755;48.116;11.608;2022-09-09T16:51:17;18.50;54.60
11399;DHT22;5755;48.116;11.608;2022-09-09T16:57:34;18.30;54.40
11399;DHT22;5755;48.116;11.608;2022-09-09T17:00:22;18.10;55.60
11399;DHT22;5755;48.116;11.608;2022-09-09T17:03:22;18.00;55.80
11399;DHT22;5755;48.116;11.608;2022-09-09T17:06:13;17.80;57.20
11399;DHT22;5755;48.116;11.608;2022-09-09T17:09:01;17.70;60.60
11399;DHT22;5755;48.116;11.608;2022-09-09T17:11:46;17.60;62.20
11399;DHT22;5755;48.116;11.608;2022-09-09T17:15:04;17.60;61.40
11399;DHT22;5755;48.116;11.608;2022-09-09T17:17:44;17.50;61.50
11399;DHT22;5755;48.116;11.608;2022-09-09T17:20:38;17.40;62.60
11399;DHT22;5755;48.116;11.608;2022-09-09T17:23:12;17.40;73.50
11399;DHT22;5755;48.116;11.608;2022-09-09T17:26:06;17.30;67.40
11399;DHT22;5755;48.116;11.608;2022-09-09T17:28:41;17.30;75.80
11399;DHT22;5755;48.116;11.608;2022-09-09T17:31:10;17.10;76.40
11399;DHT22;5755;48.116;11.608;2022-09-09T17:33:39;17.10;78.80
11399;DHT22;5755;48.116;11.608;2022-09-09T17:36:10;17.00;76.30
11399;DHT22;5755;48.116;11.608;2022-09-09T17:41:57;16.90;78.60
11399;DHT22;5755;48.116;11.608;2022-09-09T17:44:30;16.70;78.50
11399;DHT22;5755;48.116;11.608;2022-09-09T17:50:18;16.60;79.30
11399;DHT22;5755;48.116;11.608;2022-09-09T17:52:49;16.50;81.90
11399;DHT22;5755;48.116;11.608;2022-09-09T17:55:32;16.50;80.60
11399;DHT22;5755;48.116;11.608;2022-09-09T17:58:13;16.60;82.90
11399;DHT22;5755;48.116;11.608;2022-09-09T18:00:48;16.40;82.50
11399;DHT22;5755;48.116;11.608;2022-09-09T18:03:15;16.30;83.70
11399;DHT22;5755;48.116;11.608;2022-09-09T18:05:48;16.10;85.50
11399;DHT22;5755;48.116;11.608;2022-09-09T18:08:16;16.00;87.50
11399;DHT22;5755;48.116;11.608;2022-09-09T18:10:51;15.90;87.50
11399;DHT22;5755;48.116;11.608;2022-09-09T18:13:36;15.80;88.30
11399;DHT22;5755;48.116;11.608;2022-09-09T18:16:07;15.70;90.50
11399;DHT22;5755;48.116;11.608;2022-09-09T18:18:34;15.70;90.50
11399;DHT22;5755;48.116;11.608;2022-09-09T18:21:02;15.60;90.60
11399;DHT22;5755;48.116;11.608;2022-09-09T18:23:34;15.50;90.80
11399;DHT22;5755;48.116;11.608;2022-09-09T18:26:06;15.50;91.00
11399;DHT22;5755;48.116;11.608;2022-09-09T18:28:35;15.50;91.40
11399;DHT22;5755;48.116;11.608;2022-09-09T18:31:05;15.50;91.00
11399;DHT22;5755;48.116;11.608;2022-09-09T18:33:34;15.40;91.30
11399;DHT22;5755;48.116;11.608;2022-09-09T18:36:04;15.40;91.60